Data for 09/10/2016

Time Sea-Level Adjusted Pressure Absolute Pressure Temperature Relative Humidity Dew Point   
(mb) (inHg) (mb) (inHg) (C) (F) (%) (C) (F)
00:05 1026 30.3 855 25.25 6.7 44.1 56 -1.4 29.5
00:10 1026 30.3 855 25.25 6.7 44 53 -2.2 28
00:15 1026 30.3 855 25.25 7.1 44.8 51 -2.4 27.8
00:20 1026 30.3 855 25.25 7.3 45.2 46 -3.6 25.6
00:25 1026 30.3 855 25.25 7.6 45.6 47 -2.9 26.8
00:30 1026 30.3 855 25.25 7.3 45.1 49 -2.6 27.3
00:35 1026 30.3 855 25.25 6.8 44.2 50 -2.9 26.7
00:40 1026 30.3 855 25.25 6.6 44 50 -3.1 26.5
00:45 1026 30.3 855 25.25 6.7 44 50 -3.1 26.5
00:50 1026 30.3 855 25.25 6.9 44.5 47 -3.5 25.8
00:55 1026 30.3 855 25.25 7.3 45.2 44 -4 24.8
01:00 1026 30.3 855 25.25 7.7 45.8 44 -3.7 25.4
01:05 1026 30.3 855 25.25 7.6 45.6 44 -3.9 24.9
01:10 1026 30.3 855 25.25 7.8 46.1 43 -3.9 25.1
01:15 1026 30.3 855 25.25 7.8 46 45 -3.5 25.7
01:20 1026 30.3 855 25.25 7.4 45.3 45 -3.6 25.5
01:25 1026 30.3 855 25.25 7.7 45.8 45 -3.6 25.6
01:30 1026 30.3 855 25.25 7.4 45.3 46 -3.6 25.5
01:35 1026 30.3 855 25.25 7.1 44.9 46 -3.5 25.6
01:40 1025 30.27 855 25.25 7.4 45.4 44 -4 24.9
01:45 1025 30.27 855 25.25 7.5 45.5 44 -3.8 25.1
01:50 1025 30.27 855 25.25 7.4 45.2 46 -3.5 25.7
01:55 1025 30.27 855 25.25 7.1 44.8 47 -3.4 25.8
02:00 1025 30.27 855 25.25 6.9 44.4 48 -3.2 26.2
02:05 1025 30.27 855 25.25 6.8 44.3 50 -3 26.7
02:10 1025 30.27 854 25.22 6.7 44 49 -3.3 26
02:15 1025 30.27 854 25.22 6.7 44.1 50 -3.1 26.5
02:20 1025 30.27 854 25.22 6.7 44 49 -3.2 26.3
02:25 1025 30.27 854 25.22 6.6 43.9 50 -3 26.7
02:30 1025 30.27 854 25.22 6.3 43.4 51 -2.9 26.7
02:35 1025 30.27 854 25.22 6.2 43.1 52 -2.8 26.9
02:40 1025 30.27 854 25.22 6.3 43.3 51 -3 26.5
02:45 1025 30.27 854 25.22 6.6 43.8 50 -3.1 26.4
02:50 1025 30.27 854 25.22 6.7 44.1 50 -3 26.6
02:55 1025 30.27 854 25.22 6.5 43.8 52 -2.7 27.2
03:00 1025 30.27 854 25.22 6.2 43.2 52 -2.9 26.9
03:05 1025 30.27 854 25.22 6.2 43.1 52 -3.1 26.5
03:10 1025 30.27 854 25.22 6.3 43.3 52 -2.9 26.8
03:15 1025 30.27 854 25.22 6 42.8 52 -3 26.7
03:20 1025 30.27 854 25.22 5.8 42.5 53 -3.1 26.4
03:25 1025 30.27 854 25.22 5.8 42.5 53 -3.1 26.5
03:30 1025 30.27 854 25.22 5.9 42.6 54 -2.7 27.2
03:35 1025 30.27 854 25.22 5.2 41.4 57 -2.7 27.1
03:40 1025 30.27 854 25.22 5.3 41.5 55 -3.1 26.4
03:45 1025 30.27 854 25.22 5.6 42.1 53 -3.2 26.2
03:50 1025 30.27 854 25.22 6.1 43 52 -3 26.7
03:55 1025 30.27 854 25.22 6.4 43.5 50 -3.3 26
04:00 1025 30.27 854 25.22 6.7 44.1 49 -3.3 26.1
04:05 1025 30.27 854 25.22 6.8 44.2 50 -3 26.7
04:10 1025 30.27 854 25.22 6.7 44 49 -3.3 26.1
04:15 1025 30.27 854 25.22 6.7 44.1 50 -3 26.6
04:20 1025 30.27 854 25.22 6.6 43.8 51 -2.9 26.8
04:25 1025 30.27 854 25.22 6.6 43.9 49 -3.3 26
04:30 1025 30.27 854 25.22 6.5 43.7 52 -2.6 27.3
04:35 1025 30.27 854 25.22 6.1 42.9 52 -2.9 26.7
04:40 1025 30.27 854 25.22 6 42.7 52 -3.1 26.4
04:45 1025 30.27 854 25.22 6 42.8 52 -3.2 26.3
04:50 1025 30.27 854 25.22 5.9 42.6 53 -3 26.6
04:55 1025 30.27 854 25.22 5.6 42.1 55 -2.8 27
05:00 1025 30.27 854 25.22 5.2 41.4 55 -3.1 26.5
05:05 1025 30.27 854 25.22 5.4 41.7 55 -3 26.6
05:10 1024 30.24 854 25.22 5.2 41.4 56 -2.9 26.7
05:15 1024 30.24 854 25.22 4.8 40.7 57 -2.9 26.8
05:20 1024 30.24 854 25.22 4.7 40.4 58 -2.8 27
05:25 1024 30.24 854 25.22 4.6 40.3 58 -2.9 26.8
05:30 1024 30.24 854 25.22 4.7 40.5 57 -3 26.5
05:35 1024 30.24 854 25.22 5 41 57 -2.9 26.7
05:40 1024 30.24 854 25.22 4.8 40.7 57 -3 26.6
05:45 1024 30.24 854 25.22 4.8 40.6 56 -3.3 26
05:50 1024 30.24 854 25.22 5 41.1 57 -2.8 26.9
05:55 1024 30.24 854 25.22 5.3 41.6 55 -3 26.6
06:00 1024 30.24 854 25.22 5.6 42 53 -3.3 26.1
06:05 1024 30.24 854 25.22 5.5 41.9 54 -3 26.7
06:10 1024 30.24 854 25.22 5.4 41.8 53 -3.4 25.8
06:15 1024 30.24 853 25.19 5.4 41.7 54 -3.2 26.3
06:20 1024 30.24 853 25.19 5.2 41.3 54 -3.4 25.9
06:25 1024 30.24 853 25.19 5.1 41.1 55 -3.1 26.3
06:30 1024 30.24 853 25.19 5 40.9 55 -3.4 25.9
06:35 1024 30.24 853 25.19 5.1 41.1 55 -3.2 26.3
06:40 1024 30.24 853 25.19 5 41.1 58 -2.6 27.3
06:45 1024 30.24 853 25.19 4.3 39.7 62 -2.4 27.7
06:50 1024 30.24 853 25.19 4.5 40.2 55 -3.7 25.3
06:55 1024 30.24 853 25.19 5.7 42.3 50 -3.8 25.2
07:00 1024 30.24 853 25.19 6.5 43.8 48 -3.8 25.2
07:05 1024 30.24 853 25.19 7.2 44.9 46 -3.6 25.4
07:10 1024 30.24 854 25.22 7.5 45.5 45 -3.6 25.4
07:15 1024 30.24 854 25.22 8 46.3 47 -2.6 27.3
07:20 1024 30.24 854 25.22 7.5 45.5 49 -2.6 27.3
07:25 1024 30.24 854 25.22 7.5 45.6 48 -2.6 27.2
07:30 1025 30.27 854 25.22 8.2 46.7 47 -2.4 27.6
07:35 1025 30.27 854 25.22 8.9 48 44 -2.6 27.3
07:40 1025 30.27 854 25.22 9.1 48.4 47 -1.4 29.4
07:45 1024 30.24 854 25.22 9.2 48.5 45 -2.2 28.1
07:50 1024 30.24 854 25.22 9.7 49.5 44 -2.1 28.3
07:55 1024 30.24 854 25.22 10.1 50.2 41 -2.5 27.5
08:00 1024 30.24 854 25.22 10.9 51.6 39 -2.5 27.4
08:05 1024 30.24 854 25.22 11.4 52.5 38 -2.4 27.6
08:10 1024 30.24 854 25.22 12.1 53.8 37 -2.2 28.1
08:15 1024 30.24 854 25.22 12.2 53.9 33 -3.7 25.4
08:20 1024 30.24 853 25.19 12.9 55.2 32 -3.4 25.8
08:25 1024 30.24 853 25.19 13.2 55.8 30 -4 24.9
08:30 1024 30.24 853 25.19 13.7 56.7 29 -4.1 24.6
08:35 1024 30.24 854 25.22 14.1 57.4 30 -3.1 26.4
08:40 1024 30.24 854 25.22 14.2 57.6 29 -3.5 25.8
08:45 1024 30.24 853 25.19 14.2 57.6 28 -3.8 25.2
08:50 1024 30.24 854 25.22 14.3 57.8 29 -3.6 25.6
08:55 1024 30.24 854 25.22 15 58.9 26 -4.1 24.6
09:00 1024 30.24 854 25.22 15.3 59.5 28 -3 26.5
09:05 1024 30.24 853 25.19 15.6 60.1 27 -3.2 26.3
09:10 1024 30.24 853 25.19 16.4 61.5 26 -2.8 27
09:15 1024 30.24 853 25.19 15.8 60.4 28 -2.8 27
09:20 1024 30.24 853 25.19 15.7 60.2 28 -2.5 27.6
09:25 1024 30.24 853 25.19 16.1 60.9 27 -2.7 27.1
09:30 1024 30.24 853 25.19 16.6 61.9 26 -2.8 27
09:35 1024 30.24 853 25.19 17 62.6 26 -2.3 27.9
09:40 1024 30.24 853 25.19 17.4 63.2 25 -2.6 27.4
09:45 1024 30.24 853 25.19 17.2 62.9 26 -2.6 27.3
09:50 1024 30.24 853 25.19 17.5 63.4 25 -2.6 27.3
09:55 1024 30.24 853 25.19 17.5 63.4 25 -2.6 27.2
10:00 1024 30.24 853 25.19 17.4 63.2 25 -2.8 26.9
10:05 1024 30.24 853 25.19 16.9 62.4 25 -3 26.6
10:10 1024 30.24 853 25.19 17.4 63.3 26 -2.4 27.7
10:15 1024 30.24 853 25.19 18.4 65.1 23 -3.1 26.4
10:20 1023 30.21 853 25.19 18.5 65.2 21 -4.4 24.1
10:25 1023 30.21 853 25.19 18.7 65.6 20 -4.8 23.4
10:30 1023 30.21 853 25.19 19.2 66.6 19 -4.5 23.8
10:35 1023 30.21 853 25.19 19.2 66.5 20 -4.3 24.3
10:40 1023 30.21 853 25.19 19.4 66.9 19 -5 23.1
10:45 1023 30.21 852 25.16 19.2 66.5 19 -4.9 23.3
10:50 1023 30.21 852 25.16 19.9 67.8 18 -5 23
10:55 1023 30.21 852 25.16 19.9 67.8 19 -4.6 23.7
11:00 1023 30.21 852 25.16 19.4 66.9 19 -4.4 24.2
11:05 1023 30.21 852 25.16 19.4 66.8 20 -3.9 24.9
11:10 1023 30.21 852 25.16 19.4 67 18 -5.1 22.7
11:15 1023 30.21 852 25.16 19.8 67.6 21 -3 26.6
11:20 1023 30.21 852 25.16 21.2 70.1 18 -4.1 24.6
11:25 1023 30.21 852 25.16 21.5 70.6 17 -4.3 24.3
11:30 1023 30.21 852 25.16 20.8 69.5 18 -4.1 24.5
11:35 1023 30.21 852 25.16 20.7 69.2 18 -4.3 24.3
11:40 1023 30.21 852 25.16 21 69.8 18 -3.8 25.2
11:45 1023 30.21 852 25.16 20.2 68.4 18 -4.7 23.6
11:50 1023 30.21 852 25.16 20.3 68.6 18 -4.5 23.8
11:55 1023 30.21 852 25.16 20.7 69.3 17 -4.9 23.1
12:00 1023 30.21 852 25.16 21.5 70.6 15 -5.8 21.5
12:05 1023 30.21 852 25.16 22.3 72.2 15 -5.4 22.4
12:10 1023 30.21 852 25.16 22.7 72.8 15 -4.8 23.4
12:15 1023 30.21 852 25.16 22.7 72.8 16 -4.1 24.6
12:20 1023 30.21 852 25.16 23.3 73.9 15 -4.4 24
12:25 1023 30.21 852 25.16 23 73.3 16 -3.9 25
12:30 1022 30.18 852 25.16 22 71.5 17 -4.3 24.3
12:35 1022 30.18 852 25.16 22.8 73.1 15 -5 22.9
12:40 1022 30.18 851 25.13 23.4 74.2 15 -4.7 23.6
12:45 1022 30.18 851 25.13 23.8 74.8 15 -4.4 24
12:50 1022 30.18 851 25.13 24.2 75.5 15 -4.2 24.4
12:55 1022 30.18 851 25.13 24.2 75.6 14 -4.3 24.2
13:00 1022 30.18 851 25.13 24.2 75.5 14 -4.6 23.8
13:05 1022 30.18 851 25.13 24.6 76.4 14 -4.3 24.2
13:10 1022 30.18 851 25.13 24.5 76.1 15 -3.9 25
13:15 1022 30.18 851 25.13 23.9 75 15 -4.5 23.9
13:20 1022 30.18 851 25.13 24.1 75.3 14 -4.5 23.9
13:25 1022 30.18 851 25.13 24.1 75.4 14 -4.8 23.4
13:30 1022 30.18 851 25.13 24.2 75.6 14 -5.2 22.7
13:35 1021 30.15 851 25.13 24.5 76 14 -4.6 23.7
13:40 1021 30.15 851 25.13 23.9 75.1 15 -4.3 24.3
13:45 1021 30.15 851 25.13 24.3 75.8 14 -4.4 24
13:50 1021 30.15 850 25.1 24.7 76.5 14 -4.3 24.3
13:55 1021 30.15 850 25.1 24.5 76.1 14 -4.1 24.6
14:00 1021 30.15 850 25.1 24.8 76.7 14 -4.2 24.4
14:05 1021 30.15 850 25.1 25.2 77.3 14 -3.6 25.6
14:10 1021 30.15 850 25.1 24.7 76.5 15 -3.8 25.1
14:15 1021 30.15 850 25.1 24 75.2 15 -3.7 25.3
14:20 1021 30.15 850 25.1 25.2 77.4 14 -3.9 25
14:25 1021 30.15 850 25.1 25.3 77.5 14 -3.5 25.7
14:30 1021 30.15 850 25.1 24.7 76.5 17 -1.9 28.6
14:35 1021 30.15 850 25.1 25 77 14 -3.9 25
14:40 1021 30.15 850 25.1 25 77 15 -3.3 26.1
14:45 1021 30.15 850 25.1 25.2 77.3 14 -3.7 25.4
14:50 1020 30.12 850 25.1 25.7 78.2 14 -3.4 25.9
14:55 1020 30.12 850 25.1 25.9 78.6 14 -3.8 25.2
15:00 1020 30.12 850 25.1 25.8 78.5 14 -3.6 25.5
15:05 1020 30.12 850 25.1 25.4 77.7 14 -3.4 25.9
15:10 1020 30.12 849 25.07 25.2 77.3 15 -3.2 26.2
15:15 1020 30.12 849 25.07 25.4 77.8 15 -3.1 26.5
15:20 1020 30.12 849 25.07 25.7 78.2 14 -3.1 26.4
15:25 1020 30.12 849 25.07 25.9 78.6 15 -2 28.3
15:30 1020 30.12 849 25.07 25.6 78 15 -2.8 26.9
15:35 1020 30.12 849 25.07 25.5 77.8 15 -2.7 27.2
15:40 1020 30.12 849 25.07 25.2 77.4 15 -3.2 26.2
15:45 1020 30.12 849 25.07 25.3 77.6 15 -3.1 26.3
15:50 1020 30.12 849 25.07 25.4 77.8 14 -3.5 25.8
15:55 1020 30.12 849 25.07 25.3 77.5 15 -3.3 26
16:00 1020 30.12 849 25.07 25.5 77.8 15 -3.2 26.2
16:05 1019 30.09 849 25.07 25.5 77.9 15 -3 26.6
16:10 1019 30.09 849 25.07 25.8 78.4 14 -3.2 26.2
16:15 1019 30.09 848 25.04 26 78.9 14 -3.5 25.7
16:20 1019 30.09 848 25.04 26.2 79.2 14 -3.4 26
16:25 1019 30.09 848 25.04 26.1 79 14 -3.5 25.6
16:30 1019 30.09 848 25.04 25.8 78.5 13 -4.5 24
16:35 1019 30.09 848 25.04 25.7 78.3 13 -4.2 24.4
16:40 1019 30.09 848 25.04 25.8 78.4 13 -4.9 23.2
16:45 1019 30.09 848 25.04 25.8 78.5 13 -4.8 23.3
16:50 1019 30.09 848 25.04 25.9 78.6 13 -4.3 24.3
16:55 1019 30.09 848 25.04 25.8 78.5 15 -2.9 26.8
17:00 1019 30.09 848 25.04 25.6 78.2 14 -3.7 25.3
17:05 1019 30.09 848 25.04 25.6 78.1 13 -4.2 24.5
17:10 1019 30.09 848 25.04 25.5 77.9 13 -4.4 24.1
17:15 1019 30.09 848 25.04 25.3 77.5 14 -4 24.8
17:20 1019 30.09 848 25.04 24.8 76.7 14 -4.2 24.4
17:25 1019 30.09 848 25.04 24.7 76.4 14 -4.6 23.8
17:30 1019 30.09 848 25.04 24.5 76.1 14 -4.2 24.4
17:35 1019 30.09 848 25.04 24.3 75.8 14 -4.4 24
17:40 1019 30.09 848 25.04 24.3 75.7 15 -4.1 24.7
17:45 1019 30.09 848 25.04 24.3 75.7 14 -4.3 24.3
17:50 1019 30.09 848 25.04 24.2 75.5 15 -4.1 24.5
17:55 1019 30.09 848 25.04 23.9 75.1 15 -3.9 25
18:00 1019 30.09 848 25.04 23.7 74.7 16 -3.8 25.2
18:05 1019 30.09 848 25.04 23.5 74.4 16 -3.4 25.9
18:10 1019 30.09 848 25.04 23.3 73.9 17 -3.3 26.1
18:15 1019 30.09 848 25.04 23.2 73.7 17 -3.4 25.9
18:20 1019 30.09 848 25.04 23 73.4 17 -2.8 27
18:25 1019 30.09 848 25.04 22.8 73 18 -2.8 27
18:30 1019 30.09 848 25.04 22.6 72.6 19 -2 28.5
18:35 1019 30.09 848 25.04 22.2 72 19 -2.3 27.9
18:40 1019 30.09 848 25.04 22 71.6 20 -2 28.4
18:45 1019 30.09 848 25.04 21.7 71 20 -1.8 28.8
18:50 1019 30.09 848 25.04 21.4 70.5 20 -2 28.4
18:55 1019 30.09 848 25.04 21.2 70.1 21 -1.8 28.7
19:00 1019 30.09 848 25.04 20.9 69.6 22 -1.7 28.9
19:05 1019 30.09 848 25.04 20.5 68.8 22 -1.7 28.9
19:10 1019 30.09 848 25.04 20.1 68.2 22 -1.9 28.6
19:15 1019 30.09 848 25.04 19.9 67.7 23 -1.5 29.2
19:20 1019 30.09 848 25.04 19.6 67.2 27 0.4 32.7
19:25 1019 30.09 848 25.04 18.9 66 27 -0.1 31.8
19:30 1019 30.09 848 25.04 18.4 65 28 -0.3 31.4
19:35 1019 30.09 848 25.04 17.9 64.1 28 -1 30.2
19:40 1019 30.09 848 25.04 17.8 64 27 -1.2 29.8
19:45 1019 30.09 848 25.04 17.7 63.8 29 -0.3 31.4
19:50 1019 30.09 848 25.04 17.2 63 29 -0.9 30.4
19:55 1019 30.09 848 25.04 16.9 62.5 25 -2.9 26.7
20:00 1019 30.09 848 25.04 18.6 65.4 23 -3.1 26.5
20:05 1019 30.09 848 25.04 19.3 66.7 20 -4 24.8
20:10 1019 30.09 848 25.04 20.1 68.1 19 -3.9 24.9
20:15 1019 30.09 848 25.04 20.2 68.3 20 -3.6 25.5
20:20 1019 30.09 848 25.04 19.8 67.6 22 -2.3 27.9
20:25 1019 30.09 848 25.04 18.8 65.8 23 -2.9 26.8
20:30 1019 30.09 848 25.04 18.9 66 22 -3.3 26
20:35 1019 30.09 848 25.04 19.2 66.5 22 -3.2 26.2
20:40 1019 30.09 848 25.04 19.2 66.5 21 -3.3 26.1
20:45 1019 30.09 848 25.04 19.2 66.6 21 -3.3 26.1
20:50 1019 30.09 848 25.04 19.1 66.4 22 -3.1 26.4
20:55 1019 30.09 848 25.04 19 66.1 22 -3 26.6
21:00 1019 30.09 848 25.04 18.9 66 21 -3.5 25.7
21:05 1019 30.09 848 25.04 19 66.2 21 -3.8 25.2
21:10 1019 30.09 848 25.04 19 66.2 21 -3.6 25.6
21:15 1019 30.09 848 25.04 18.8 65.9 21 -3.6 25.5
21:20 1019 30.09 848 25.04 18.6 65.4 22 -3.3 26.1
21:25 1019 30.09 848 25.04 18 64.4 25 -2.5 27.6
21:30 1019 30.09 848 25.04 17 62.6 27 -2 28.4
21:35 1019 30.09 848 25.04 16.4 61.4 30 -1 30.1
21:40 1019 30.09 848 25.04 16.2 61.1 30 -1.2 29.8
21:45 1019 30.09 848 25.04 15.4 59.6 32 -1 30.2
21:50 1019 30.09 848 25.04 14.8 58.6 33 -1.2 29.8
21:55 1019 30.09 848 25.04 14.7 58.5 31 -2.4 27.7
22:00 1019 30.09 848 25.04 15.4 59.7 29 -2.2 28
22:05 1019 30.09 848 25.04 15.3 59.5 31 -1.7 29
22:10 1019 30.09 848 25.04 14.9 58.8 32 -1.7 29
22:15 1019 30.09 848 25.04 15 59.1 30 -2.5 27.5
22:20 1019 30.09 848 25.04 15.5 59.8 30 -2.2 28.1
22:25 1019 30.09 848 25.04 15.7 60.3 30 -1.9 28.6
22:30 1019 30.09 848 25.04 15.8 60.4 28 -2.4 27.7
22:35 1018 30.06 848 25.04 15.6 60.1 29 -2.3 27.8
22:40 1018 30.06 848 25.04 15.3 59.6 30 -2 28.4
22:45 1018 30.06 848 25.04 15.1 59.3 28 -3 26.6
22:50 1018 30.06 848 25.04 15.1 59.1 28 -3.3 26.1
22:55 1018 30.06 848 25.04 15.4 59.7 28 -3.1 26.3
23:00 1018 30.06 848 25.04 15.3 59.5 27 -3.5 25.8
23:05 1018 30.06 848 25.04 15.4 59.8 26 -3.9 24.9
23:10 1018 30.06 848 25.04 15.6 60.1 27 -3.1 26.3
23:15 1018 30.06 847 25.01 15.3 59.5 27 -3.5 25.7
23:20 1018 30.06 847 25.01 15.2 59.4 28 -3.3 26.1
23:25 1018 30.06 847 25.01 15 59 28 -3.2 26.2
23:30 1018 30.06 847 25.01 14.8 58.7 29 -3.1 26.5
23:35 1018 30.06 847 25.01 14.7 58.5 29 -3.1 26.3
23:40 1018 30.06 847 25.01 14.6 58.3 28 -3.6 25.5
23:45 1018 30.06 847 25.01 14.7 58.5 29 -3 26.5
23:50 1018 30.06 847 25.01 14.2 57.6 30 -3 26.6
23:55 1018 30.06 847 25.01 14.1 57.4 29 -3.3 26
24:00 1018 30.06 847 25.01 14.1 57.4 30 -3.1 26.5